createdAt,value
2023-03-02T00:04:24.669Z,71.04
2023-03-02T00:10:47.672Z,71.24
2023-03-02T00:17:07.630Z,71.14
2023-03-02T00:23:30.719Z,71.76
2023-03-02T00:29:50.579Z,71.59
2023-03-02T00:36:13.789Z,72.28
2023-03-02T00:42:33.762Z,72.02
2023-03-02T00:48:56.659Z,72.26
2023-03-02T00:55:16.688Z,71.75
2023-03-02T01:01:39.713Z,71.3
2023-03-02T01:07:59.558Z,71.59
2023-03-02T01:14:22.726Z,71.51
2023-03-02T01:20:42.605Z,72.1
2023-03-02T01:27:05.609Z,72.87
2023-03-02T01:33:25.639Z,73.08
2023-03-02T01:39:48.621Z,73.64
2023-03-02T01:46:08.680Z,73.49
2023-03-02T01:52:31.620Z,73.31
2023-03-02T01:58:51.606Z,73.9
2023-03-02T02:05:14.696Z,74.02
2023-03-02T02:11:34.729Z,74.37
2023-03-02T02:17:57.583Z,74.21
2023-03-02T02:24:17.780Z,74
2023-03-02T02:30:40.640Z,74.41
2023-03-02T02:37:00.602Z,74.14
2023-03-02T02:43:23.623Z,74.63
2023-03-02T02:49:43.628Z,75.07
2023-03-02T02:56:06.586Z,75.28
2023-03-02T03:02:26.607Z,75.83
2023-03-02T03:08:49.664Z,75.35
2023-03-02T03:15:09.627Z,74.86
2023-03-02T03:21:32.686Z,75.32
2023-03-02T03:27:52.628Z,75.48
2023-03-02T03:34:15.735Z,76.39
2023-03-02T03:40:35.673Z,76.25
2023-03-02T03:46:58.795Z,77.07
2023-03-02T03:53:18.633Z,76.86
2023-03-02T03:59:41.611Z,76.42
2023-03-02T04:15:13.501Z,75.73
2023-03-02T04:21:33.538Z,75.95
2023-03-02T04:27:56.592Z,77.71
2023-03-02T04:34:16.582Z,77.19
2023-03-02T04:40:39.641Z,77.75
2023-03-02T04:46:59.716Z,77.24
2023-03-02T04:53:22.734Z,76.64
2023-03-02T04:59:42.586Z,76.23
2023-03-02T05:06:05.683Z,76.05
2023-03-02T05:12:25.696Z,76.35
2023-03-02T05:18:48.644Z,75.89
2023-03-02T05:25:08.592Z,76.88
2023-03-02T05:31:31.818Z,76.78
2023-03-02T05:37:51.596Z,77.51
2023-03-02T05:44:14.687Z,77.61
2023-03-02T05:50:34.717Z,77.53
2023-03-02T05:56:57.662Z,77.47
2023-03-02T06:03:17.609Z,78.07
2023-03-02T06:09:40.697Z,78.37
2023-03-02T06:16:00.680Z,77.81
2023-03-02T06:22:23.572Z,78.12
2023-03-02T06:28:51.841Z,78.25
2023-03-02T06:35:06.757Z,77.37
2023-03-02T06:41:26.579Z,76.78
2023-03-02T06:47:49.633Z,77.76
2023-03-02T06:54:09.627Z,78.19
2023-03-02T07:00:32.667Z,78.41
2023-03-02T07:06:52.592Z,78.66
2023-03-02T07:13:15.689Z,77.72
2023-03-02T07:19:35.689Z,77.03
2023-03-02T07:25:58.625Z,77.17
2023-03-02T07:32:18.647Z,77.2
2023-03-02T07:38:41.652Z,76.58
2023-03-02T07:45:01.649Z,75.81
2023-03-02T07:51:24.654Z,74.83
2023-03-02T07:57:44.585Z,74.34
2023-03-02T08:04:07.770Z,73.35
2023-03-02T08:10:27.567Z,72.64
2023-03-02T08:16:50.677Z,72.19
2023-03-02T08:23:10.637Z,71.77
2023-03-02T08:29:33.656Z,70.48
2023-03-02T08:35:53.657Z,70.3
2023-03-02T08:42:16.609Z,69.82
2023-03-02T08:48:36.738Z,68.96
2023-03-02T08:54:59.636Z,66.92
2023-03-02T09:18:23.628Z,62.38
2023-03-02T09:24:43.562Z,61.88
2023-03-02T09:31:06.605Z,60.93
2023-03-02T09:37:26.607Z,59.22
2023-03-02T09:43:49.567Z,59.25
2023-03-02T09:50:09.695Z,57.47
2023-03-02T09:56:32.926Z,56.6
2023-03-02T10:02:52.737Z,55.43
2023-03-02T10:09:15.571Z,54.75
2023-03-02T10:15:35.677Z,54.17
2023-03-02T10:21:58.660Z,51.9
2023-03-02T10:28:18.634Z,51.54
2023-03-02T10:34:41.684Z,51.09
2023-03-02T10:41:01.619Z,50.32
2023-03-02T10:47:24.590Z,49.46
2023-03-02T10:53:44.679Z,48.64
2023-03-02T11:00:07.656Z,47.72
2023-03-02T11:06:27.624Z,47.16
2023-03-02T11:12:50.613Z,46.86
2023-03-02T11:19:10.561Z,46.02
2023-03-02T11:25:33.617Z,46.11
2023-03-02T11:31:53.872Z,46.34
2023-03-02T11:38:16.682Z,44.35
2023-03-02T11:44:36.632Z,43.97
2023-03-02T11:50:59.646Z,44.29
2023-03-02T11:57:19.635Z,44.21
2023-03-02T12:03:42.630Z,43.39
2023-03-02T12:10:02.647Z,41.92
2023-03-02T12:16:25.620Z,41.59
2023-03-02T12:22:45.629Z,41.21
2023-03-02T12:29:08.666Z,40.98
2023-03-02T12:35:28.724Z,41.59
2023-03-02T12:41:51.645Z,41.21
2023-03-02T12:48:11.739Z,39.54
2023-03-02T12:54:34.597Z,39.52
2023-03-02T13:00:54.750Z,38.42
2023-03-02T13:07:17.626Z,37.79
2023-03-02T13:13:37.698Z,37.19
2023-03-02T13:20:00.587Z,38.15
2023-03-02T13:26:20.887Z,37.67
2023-03-02T13:32:43.693Z,36.58
2023-03-02T13:39:03.589Z,37.06
2023-03-02T13:45:26.625Z,36.85
2023-03-02T13:51:46.600Z,36.01
2023-03-02T13:58:09.570Z,36.31
2023-03-02T14:04:29.741Z,35.63
2023-03-02T14:10:52.619Z,36.34
2023-03-02T14:17:12.651Z,36.47
2023-03-02T14:33:40.112Z,36.48
2023-03-02T14:39:59.572Z,35.3
2023-03-02T14:46:22.692Z,34.49
2023-03-02T14:52:42.608Z,34.65
2023-03-02T14:59:05.605Z,34.2
2023-03-02T15:05:25.612Z,31.91
2023-03-02T15:11:48.661Z,33.89
2023-03-02T15:18:08.868Z,33.11
2023-03-02T15:24:33.312Z,32.95
2023-03-02T15:30:51.660Z,33.9
2023-03-02T15:37:14.587Z,31.98
2023-03-02T15:43:34.585Z,32.48
2023-03-02T15:49:57.623Z,32.3
2023-03-02T15:56:17.593Z,31.9
2023-03-02T16:02:40.640Z,32.41
2023-03-02T16:09:00.609Z,34.42
2023-03-02T16:15:23.589Z,34.3
2023-03-02T16:21:43.631Z,34.45
2023-03-02T16:28:06.591Z,35.48
2023-03-02T16:34:26.818Z,35.32
2023-03-02T16:40:49.581Z,35.78
2023-03-02T16:47:09.668Z,36.65
2023-03-02T16:53:32.612Z,36.98
2023-03-02T16:59:52.614Z,37.25
2023-03-02T17:06:15.642Z,38
2023-03-02T17:12:35.601Z,38.36
2023-03-02T17:18:58.788Z,39.03
2023-03-02T17:25:18.697Z,38.7
2023-03-02T17:31:41.626Z,39.34
2023-03-02T17:38:01.632Z,40.32
2023-03-02T17:44:24.631Z,41.04
2023-03-02T17:50:44.585Z,42.04
2023-03-02T17:57:07.628Z,42.66
2023-03-02T18:03:27.715Z,43.23
2023-03-02T18:09:50.590Z,43.26
2023-03-02T18:16:10.605Z,43.26
2023-03-02T18:22:33.627Z,43.13
2023-03-02T18:28:53.580Z,43.23
2023-03-02T18:35:16.657Z,43.96
2023-03-02T18:41:36.646Z,44.77
2023-03-02T18:47:59.614Z,45.1
2023-03-02T18:54:19.615Z,45.69
2023-03-02T19:00:42.627Z,46.19
2023-03-02T19:07:02.650Z,47
2023-03-02T19:13:25.558Z,47.97
2023-03-02T19:19:45.638Z,48.43
2023-03-02T19:26:08.642Z,49.03
2023-03-02T19:41:40.505Z,51.65
2023-03-02T19:48:00.543Z,52.58
2023-03-02T19:54:23.610Z,52.26
2023-03-02T20:00:43.600Z,52.75
2023-03-02T20:07:06.614Z,53.2
2023-03-02T20:13:27.287Z,53.71
2023-03-02T20:19:49.616Z,55.34
2023-03-02T20:26:09.647Z,56.75
2023-03-02T20:32:32.616Z,58.15
2023-03-02T20:38:52.587Z,58.22
2023-03-02T20:45:15.713Z,59.12
2023-03-02T20:51:35.561Z,59.65
2023-03-02T20:57:58.609Z,60.39
2023-03-02T21:04:18.651Z,60.78
2023-03-02T21:10:41.644Z,60.91
2023-03-02T21:17:01.680Z,61.35
2023-03-02T21:23:24.637Z,62.83
2023-03-02T21:29:44.596Z,63.13
2023-03-02T21:36:07.837Z,63.39
2023-03-02T21:42:27.868Z,64.21
2023-03-02T21:48:50.585Z,65.63
2023-03-02T21:55:10.651Z,65.97
2023-03-02T22:01:33.639Z,67.18
2023-03-02T22:07:53.668Z,67.82
2023-03-02T22:14:16.657Z,67.42
2023-03-02T22:20:36.854Z,67.49
2023-03-02T22:26:59.600Z,67.45
2023-03-02T22:33:19.699Z,67.16
2023-03-02T22:39:42.698Z,68.31
2023-03-02T22:46:02.574Z,68.72
2023-03-02T22:52:25.628Z,68.7
2023-03-02T22:58:45.568Z,69.55
2023-03-02T23:21:43.600Z,70.11
2023-03-02T23:28:03.564Z,71.04
2023-03-02T23:34:26.593Z,71.22
2023-03-02T23:40:46.831Z,71.16
2023-03-02T23:47:09.618Z,71.47
2023-03-02T23:53:29.561Z,72.98
2023-03-02T23:59:52.764Z,72.51
